Time;durP1;ratioP1;P1;durP2;ratioP2;P2;SDS_P1;SDS_P2;PMS_P1;PMS_P2;Temp;Humidity;BMP_temperature;BMP_pressure;BME280_temperature;BME280_humidity;BME280_pressure;Samples;Min_cycle;Max_cycle;Signal;HPM_P1;HPM_P2
2021/12/23 00:01:38;;;;;;;125.68;42.67;;;-2.50;99.90;;;;;;5090105;28;20078;-69
2021/12/23 00:04:04;;;;;;;120.28;41.95;;;-2.50;99.90;;;;;;5080947;28;20055;-69
2021/12/23 00:06:30;;;;;;;128.05;40.65;;;-2.40;99.90;;;;;;5087561;28;20031;-69
2021/12/23 00:09:00;;;;;;;138.63;44.60;;;-2.40;99.90;;;;;;5075028;28;20391;-69
2021/12/23 00:11:27;;;;;;;125.28;44.40;;;-2.50;99.90;;;;;;5075630;28;20362;-69
2021/12/23 00:14:07;;;;;;;129.70;42.03;;;-2.40;99.90;;;;;;5076309;28;20024;-69
2021/12/23 00:16:55;;;;;;;126.15;42.90;;;-2.50;99.90;;;;;;5075047;28;20450;-70
2021/12/23 00:24:33;;;;;;;131.15;47.20;;;-2.40;99.90;;;;;;5081912;28;20396;-70
2021/12/23 00:26:59;;;;;;;136.55;41.83;;;-2.40;99.90;;;;;;5074785;28;20028;-69
2021/12/23 00:29:25;;;;;;;122.60;42.08;;;-2.40;99.90;;;;;;5082304;28;20533;-69
2021/12/23 00:31:51;;;;;;;121.35;45.58;;;-2.40;99.90;;;;;;5094630;28;20039;-69
2021/12/23 00:34:16;;;;;;;134.55;45.63;;;-2.40;99.90;;;;;;5094880;28;20024;-69
2021/12/23 00:36:44;;;;;;;138.38;42.50;;;-2.40;99.90;;;;;;5092675;28;20012;-69
2021/12/23 00:39:12;;;;;;;133.73;46.22;;;-2.40;99.90;;;;;;5083703;28;20480;-69
2021/12/23 00:41:37;;;;;;;132.25;41.92;;;-2.40;99.90;;;;;;5074501;28;20063;-70
2021/12/23 00:44:04;;;;;;;124.50;44.35;;;-2.40;99.90;;;;;;5076289;28;20109;-69
2021/12/23 00:46:29;;;;;;;139.38;46.13;;;-2.40;99.90;;;;;;5074913;28;20029;-70
2021/12/23 00:48:55;;;;;;;147.43;47.90;;;-2.40;99.90;;;;;;5075504;28;20039;-69
2021/12/23 00:51:21;;;;;;;124.85;45.40;;;-2.30;99.90;;;;;;5094284;28;20059;-69
2021/12/23 00:53:49;;;;;;;119.45;42.15;;;-2.30;99.90;;;;;;5091763;28;20107;-69
2021/12/23 00:56:15;;;;;;;134.15;44.10;;;-2.30;99.90;;;;;;5073941;28;20027;-70
2021/12/23 00:58:40;;;;;;;135.60;45.30;;;-2.40;99.90;;;;;;5073759;28;20414;-69
2021/12/23 01:01:07;;;;;;;136.15;46.13;;;-2.40;99.90;;;;;;5076379;28;20031;-70
2021/12/23 01:03:32;;;;;;;146.10;47.47;;;-2.40;99.90;;;;;;5085388;28;20024;-69
2021/12/23 01:05:58;;;;;;;131.15;44.28;;;-2.40;99.90;;;;;;5094044;28;20111;-69
2021/12/23 01:08:24;;;;;;;132.20;43.72;;;-2.30;99.90;;;;;;5086864;28;20063;-69
2021/12/23 01:10:55;;;;;;;125.88;44.97;;;-2.40;99.90;;;;;;5082009;28;20024;-69
2021/12/23 01:13:25;;;;;;;135.90;46.17;;;-2.30;99.90;;;;;;5076890;28;20028;-69
2021/12/23 01:16:13;;;;;;;125.88;44.60;;;-2.30;99.90;;;;;;5073918;28;20021;-70
2021/12/23 01:18:46;;;;;;;121.32;44.15;;;-2.30;99.90;;;;;;5075941;28;20028;-69
2021/12/23 01:21:16;;;;;;;135.68;49.08;;;-2.40;99.90;;;;;;5074159;28;20036;-69
2021/12/23 01:23:53;;;;;;;140.65;48.55;;;-2.30;99.90;;;;;;5073792;28;20045;-69
2021/12/23 01:26:22;;;;;;;117.47;43.03;;;-2.30;99.90;;;;;;5073760;28;20028;-70
2021/12/23 01:28:54;;;;;;;135.15;46.17;;;-2.30;99.90;;;;;;5073300;28;20072;-69
2021/12/23 01:31:26;;;;;;;112.38;41.58;;;-2.30;99.90;;;;;;5073485;28;20073;-69
2021/12/23 01:33:52;;;;;;;125.97;45.47;;;-2.30;99.90;;;;;;5073421;28;20101;-70
2021/12/23 01:36:18;;;;;;;125.57;44.50;;;-2.30;99.90;;;;;;5073319;28;20021;-70
2021/12/23 01:38:43;;;;;;;115.95;44.58;;;-2.30;99.90;;;;;;5073488;28;20117;-69
2021/12/23 01:41:09;;;;;;;118.50;45.60;;;-2.30;99.90;;;;;;5073278;28;20488;-69
2021/12/23 01:43:35;;;;;;;123.60;46.70;;;-2.30;99.90;;;;;;5073682;28;20112;-69
2021/12/23 01:46:01;;;;;;;116.47;42.97;;;-2.30;99.90;;;;;;5073237;28;20107;-70
2021/12/23 01:48:26;;;;;;;121.32;43.80;;;-2.30;99.90;;;;;;5073046;28;20032;-69
2021/12/23 01:50:52;;;;;;;115.35;43.63;;;-2.30;99.90;;;;;;5073202;28;20028;-69
2021/12/23 01:53:18;;;;;;;125.82;48.42;;;-2.20;99.90;;;;;;5074075;28;20036;-69
2021/12/23 01:55:45;;;;;;;123.65;45.58;;;-2.20;99.90;;;;;;5083286;28;20031;-69
2021/12/23 01:58:13;;;;;;;127.75;47.65;;;-2.20;99.90;;;;;;5072912;28;20048;-69
2021/12/23 02:00:43;;;;;;;132.43;46.33;;;-2.20;99.90;;;;;;5073045;28;20104;-70
2021/12/23 02:03:09;;;;;;;124.35;44.97;;;-2.20;99.90;;;;;;5074507;28;20131;-69
2021/12/23 02:05:34;;;;;;;120.95;47.17;;;-2.20;99.90;;;;;;5087188;28;20468;-69
2021/12/23 02:08:00;;;;;;;127.22;43.65;;;-2.20;99.90;;;;;;5081557;28;20395;-69
2021/12/23 02:10:27;;;;;;;119.85;45.55;;;-2.20;99.90;;;;;;5093442;28;20028;-69
2021/12/23 02:12:54;;;;;;;114.90;45.53;;;-2.10;99.90;;;;;;5090315;28;20028;-69
2021/12/23 02:15:20;;;;;;;115.30;43.58;;;-2.10;99.90;;;;;;5073232;28;20024;-69
2021/12/23 02:17:47;;;;;;;108.88;44.10;;;-2.10;99.90;;;;;;5072849;28;20445;-69
2021/12/23 02:20:16;;;;;;;117.03;44.22;;;-2.10;99.90;;;;;;5075461;28;20020;-69
2021/12/23 02:22:43;;;;;;;120.88;43.33;;;-2.10;99.90;;;;;;5076793;28;20416;-69
2021/12/23 02:25:11;;;;;;;122.75;46.17;;;-2.10;99.90;;;;;;5077057;28;20117;-70
2021/12/23 02:27:37;;;;;;;112.93;45.20;;;-2.10;99.90;;;;;;5085736;28;20027;-69
2021/12/23 02:30:10;;;;;;;105.88;43.33;;;-2.10;99.90;;;;;;5096690;28;20126;-69
2021/12/23 02:32:36;;;;;;;109.78;45.85;;;-2.10;99.90;;;;;;5088525;28;20034;-69
2021/12/23 02:35:04;;;;;;;103.50;42.03;;;-2.00;99.90;;;;;;5092891;28;20032;-70
2021/12/23 02:37:30;;;;;;;104.68;43.80;;;-2.00;99.90;;;;;;5093805;28;20081;-69
2021/12/23 02:39:56;;;;;;;108.82;42.42;;;-2.00;99.90;;;;;;5096883;28;20036;-70
2021/12/23 02:42:24;;;;;;;109.00;41.78;;;-2.00;99.90;;;;;;5096810;28;20035;-69
2021/12/23 02:44:49;;;;;;;104.22;42.35;;;-2.00;99.90;;;;;;5077067;28;20021;-70
2021/12/23 02:47:18;;;;;;;105.53;43.67;;;-2.00;99.90;;;;;;5076392;28;20039;-70
2021/12/23 02:49:44;;;;;;;101.90;43.90;;;-2.00;99.90;;;;;;5078261;28;20024;-69
2021/12/23 02:52:09;;;;;;;109.30;44.40;;;-2.00;99.90;;;;;;5096417;28;20089;-69
2021/12/23 02:54:35;;;;;;;102.25;41.35;;;-1.90;99.90;;;;;;5087993;28;20024;-69
2021/12/23 02:57:01;;;;;;;98.90;41.25;;;-1.90;99.90;;;;;;5096483;28;20464;-69
2021/12/23 02:59:27;;;;;;;103.47;43.53;;;-1.90;99.90;;;;;;5096783;28;20150;-70
2021/12/23 03:01:52;;;;;;;95.63;41.47;;;-1.90;99.90;;;;;;5097006;28;20028;-70
2021/12/23 03:04:18;;;;;;;107.60;43.85;;;-1.90;99.90;;;;;;5096372;28;20024;-69
2021/12/23 03:06:43;;;;;;;99.45;40.83;;;-1.90;99.90;;;;;;5096372;28;20028;-70
2021/12/23 03:09:09;;;;;;;94.88;42.15;;;-1.90;99.90;;;;;;5096173;28;20028;-69
2021/12/23 03:11:35;;;;;;;96.63;40.60;;;-1.90;99.90;;;;;;5096255;28;20027;-70
2021/12/23 03:14:01;;;;;;;102.60;42.58;;;-2.00;99.90;;;;;;5097083;28;20020;-69
2021/12/23 03:16:33;;;;;;;100.78;41.35;;;-1.90;99.90;;;;;;5096421;28;20024;-70
2021/12/23 03:18:58;;;;;;;108.35;42.63;;;-1.90;99.90;;;;;;5096039;28;20097;-70
2021/12/23 03:21:24;;;;;;;120.28;46.10;;;-1.90;99.90;;;;;;5096367;28;20474;-69
2021/12/23 03:23:51;;;;;;;92.80;40.70;;;-1.90;99.90;;;;;;5096056;28;20467;-70
2021/12/23 03:26:17;;;;;;;101.47;43.15;;;-2.00;99.90;;;;;;5096312;28;20055;-69
2021/12/23 03:28:42;;;;;;;110.28;45.03;;;-1.90;99.90;;;;;;5095813;28;20056;-69
2021/12/23 03:31:08;;;;;;;100.10;41.35;;;-1.90;99.90;;;;;;5095894;28;20471;-70
2021/12/23 03:33:34;;;;;;;103.18;42.33;;;-1.90;99.90;;;;;;5096103;28;20027;-70
2021/12/23 03:36:00;;;;;;;114.03;42.47;;;-1.90;99.90;;;;;;5095954;28;20050;-69
2021/12/23 03:38:26;;;;;;;99.97;42.72;;;-1.90;99.90;;;;;;5095687;28;20027;-69
2021/12/23 03:40:52;;;;;;;99.68;43.78;;;-1.90;99.90;;;;;;5095972;28;20024;-69
2021/12/23 03:43:18;;;;;;;105.45;42.40;;;-1.90;99.90;;;;;;5095675;28;20020;-70
2021/12/23 03:45:46;;;;;;;97.38;41.85;;;-1.90;99.90;;;;;;5095862;28;20372;-69
2021/12/23 03:48:13;;;;;;;104.82;43.00;;;-1.90;99.90;;;;;;5095432;28;20024;-70
2021/12/23 03:50:39;;;;;;;101.70;41.67;;;-1.90;99.90;;;;;;5095813;28;20021;-69
2021/12/23 03:53:05;;;;;;;92.45;39.75;;;-1.90;99.90;;;;;;5095489;28;20390;-70
2021/12/23 03:55:32;;;;;;;103.55;42.40;;;-1.90;99.90;;;;;;5095681;28;20102;-70
2021/12/23 03:57:57;;;;;;;102.20;41.65;;;-1.90;99.90;;;;;;5095227;28;20031;-70
2021/12/23 04:00:24;;;;;;;103.10;42.58;;;-1.90;99.90;;;;;;5095342;28;20423;-70
2021/12/23 04:02:51;;;;;;;104.75;44.13;;;-1.90;99.90;;;;;;5095381;28;20023;-69
2021/12/23 04:05:18;;;;;;;96.60;42.47;;;-1.90;99.90;;;;;;5095499;28;20028;-69
2021/12/23 04:07:44;;;;;;;100.18;41.58;;;-1.90;99.90;;;;;;5095103;28;20077;-70
2021/12/23 04:10:12;;;;;;;94.57;40.22;;;-1.90;99.90;;;;;;5095326;28;20024;-69
2021/12/23 04:12:38;;;;;;;111.45;42.70;;;-1.90;99.90;;;;;;5095067;28;20016;-69
2021/12/23 04:15:04;;;;;;;95.05;43.00;;;-1.90;99.90;;;;;;5095596;28;20031;-69
2021/12/23 04:17:30;;;;;;;105.53;43.97;;;-1.90;99.90;;;;;;5095194;28;20073;-69
2021/12/23 04:20:03;;;;;;;102.03;42.28;;;-1.90;99.90;;;;;;5095134;28;20111;-70
2021/12/23 04:22:28;;;;;;;105.88;42.58;;;-1.90;99.90;;;;;;5092582;28;20711;-69
2021/12/23 04:24:54;;;;;;;92.00;38.60;;;-1.90;99.90;;;;;;5076223;28;20048;-70
2021/12/23 04:27:19;;;;;;;100.47;41.28;;;-1.90;99.90;;;;;;5074500;28;20391;-69
2021/12/23 04:29:45;;;;;;;97.07;41.22;;;-1.90;99.90;;;;;;5074753;28;20056;-69
2021/12/23 04:32:11;;;;;;;95.10;40.65;;;-1.90;99.90;;;;;;5084749;28;20028;-70
2021/12/23 04:34:36;;;;;;;91.25;39.97;;;-1.90;99.90;;;;;;5094682;28;20024;-69
2021/12/23 04:37:02;;;;;;;94.45;40.95;;;-1.90;99.90;;;;;;5094812;28;20026;-69
2021/12/23 04:39:27;;;;;;;103.20;41.08;;;-1.90;99.90;;;;;;5074687;28;20048;-69
2021/12/23 04:41:53;;;;;;;99.57;40.05;;;-1.80;99.90;;;;;;5073569;28;20105;-70
2021/12/23 04:44:18;;;;;;;99.75;40.40;;;-1.80;99.90;;;;;;5076469;28;20037;-69
2021/12/23 04:46:44;;;;;;;94.57;40.30;;;-1.80;99.90;;;;;;5074144;28;20025;-70
2021/12/23 04:49:09;;;;;;;102.97;42.42;;;-1.80;99.90;;;;;;5078482;28;20073;-69
2021/12/23 04:51:35;;;;;;;90.65;37.00;;;-1.80;99.90;;;;;;5094896;28;20016;-69
2021/12/23 04:54:00;;;;;;;95.13;39.92;;;-1.80;99.90;;;;;;5094267;28;20032;-69
2021/12/23 04:56:26;;;;;;;95.97;40.15;;;-1.80;99.90;;;;;;5094215;28;20024;-69
2021/12/23 04:58:51;;;;;;;94.03;39.80;;;-1.80;99.90;;;;;;5094038;28;20499;-69
2021/12/23 05:01:21;;;;;;;88.45;39.17;;;-1.80;99.90;;;;;;5079125;28;20478;-69
2021/12/23 05:03:47;;;;;;;94.97;41.03;;;-1.70;99.90;;;;;;5087443;28;20023;-69
2021/12/23 05:06:15;;;;;;;89.07;38.78;;;-1.70;99.90;;;;;;5094072;28;20073;-69
2021/12/23 05:08:40;;;;;;;89.20;39.38;;;-1.70;99.90;;;;;;5084636;28;20025;-69
2021/12/23 05:11:06;;;;;;;90.22;40.00;;;-1.70;99.90;;;;;;5073990;28;20024;-69
2021/12/23 05:13:32;;;;;;;89.10;38.60;;;-1.70;99.90;;;;;;5075944;28;20028;-69
2021/12/23 05:15:57;;;;;;;88.70;37.17;;;-1.70;99.90;;;;;;5073636;28;20083;-69
2021/12/23 05:18:23;;;;;;;88.78;37.38;;;-1.70;99.90;;;;;;5073709;28;20109;-69
2021/12/23 05:20:49;;;;;;;88.05;37.97;;;-1.60;99.90;;;;;;5073698;28;20044;-69
2021/12/23 05:23:15;;;;;;;87.68;38.33;;;-1.70;99.90;;;;;;5075782;28;20031;-69
2021/12/23 05:25:41;;;;;;;87.07;37.63;;;-1.70;99.90;;;;;;5073746;28;20024;-69
2021/12/23 05:28:06;;;;;;;85.03;39.78;;;-1.70;99.90;;;;;;5075844;28;20444;-69
2021/12/23 05:30:32;;;;;;;94.95;38.53;;;-1.70;99.90;;;;;;5073716;28;20016;-69
2021/12/23 05:32:58;;;;;;;88.10;37.97;;;-1.60;99.90;;;;;;5055273;28;20048;-69
2021/12/23 05:35:24;;;;;;;91.60;37.95;;;-1.70;99.90;;;;;;5076020;28;20104;-69
2021/12/23 05:37:51;;;;;;;80.70;36.25;;;-1.60;99.90;;;;;;5073540;28;20373;-69
2021/12/23 05:40:19;;;;;;;82.50;37.83;;;-1.60;99.90;;;;;;5073481;28;20523;-69
2021/12/23 05:42:45;;;;;;;82.80;36.58;;;-1.60;99.90;;;;;;5073549;28;20379;-69
2021/12/23 05:45:11;;;;;;;80.15;35.70;;;-1.60;99.90;;;;;;5075370;28;20028;-69
2021/12/23 05:47:37;;;;;;;81.15;36.05;;;-1.60;99.90;;;;;;5073171;28;20434;-69
2021/12/23 05:50:05;;;;;;;74.28;36.15;;;-1.60;99.90;;;;;;5085871;28;20085;-69
2021/12/23 05:52:31;;;;;;;75.53;34.45;;;-1.60;99.90;;;;;;5092086;28;20423;-69
2021/12/23 05:54:57;;;;;;;81.55;38.05;;;-1.60;99.90;;;;;;5092793;28;20016;-69
2021/12/23 05:57:23;;;;;;;83.80;36.50;;;-1.60;99.90;;;;;;5092982;28;20491;-69
2021/12/23 05:59:49;;;;;;;81.82;34.92;;;-1.60;99.90;;;;;;5073401;28;20044;-69
2021/12/23 06:02:14;;;;;;;82.60;35.63;;;-1.60;99.90;;;;;;5090146;28;20045;-69
2021/12/23 06:04:40;;;;;;;91.28;35.83;;;-1.60;99.90;;;;;;5093183;28;20427;-69
2021/12/23 06:07:06;;;;;;;75.22;35.90;;;-1.60;99.90;;;;;;5081406;28;20029;-69
2021/12/23 06:09:32;;;;;;;92.88;36.60;;;-1.60;99.90;;;;;;5073185;28;20067;-69
2021/12/23 06:11:57;;;;;;;74.82;36.15;;;-1.50;99.90;;;;;;5073222;28;20029;-69
2021/12/23 06:14:23;;;;;;;78.75;35.05;;;-1.60;99.90;;;;;;5073218;28;20387;-69
2021/12/23 06:16:49;;;;;;;78.60;36.40;;;-1.60;99.90;;;;;;5073250;28;20532;-69
2021/12/23 06:19:14;;;;;;;88.13;35.88;;;-1.50;99.90;;;;;;5072785;28;20063;-70
2021/12/23 06:21:40;;;;;;;72.85;35.58;;;-1.50;99.90;;;;;;5073099;28;20357;-69
2021/12/23 06:24:06;;;;;;;80.95;36.08;;;-1.50;99.90;;;;;;5074935;28;20032;-69
2021/12/23 06:26:32;;;;;;;77.00;35.63;;;-1.40;99.90;;;;;;5071553;28;20025;-69
2021/12/23 06:28:58;;;;;;;83.15;37.30;;;-1.40;99.90;;;;;;5078153;28;20099;-69
2021/12/23 06:31:24;;;;;;;77.78;36.35;;;-1.40;99.90;;;;;;5092031;28;20016;-69
2021/12/23 06:33:50;;;;;;;91.97;39.50;;;-1.40;99.90;;;;;;5091715;28;20063;-69
2021/12/23 06:36:17;;;;;;;82.25;33.65;;;-1.30;99.90;;;;;;5092865;28;20032;-69
2021/12/23 06:38:44;;;;;;;94.47;36.47;;;-1.30;99.90;;;;;;5070546;28;20029;-68
2021/12/23 06:41:11;;;;;;;83.57;37.50;;;-1.30;99.90;;;;;;5087790;28;20021;-69
2021/12/23 06:43:36;;;;;;;84.82;35.88;;;-1.30;99.90;;;;;;5072944;28;20029;-69
2021/12/23 06:46:03;;;;;;;80.75;35.88;;;-1.30;99.90;;;;;;5074844;28;20380;-69
2021/12/23 06:48:30;;;;;;;72.55;35.50;;;-1.20;99.90;;;;;;5072767;28;20025;-69
2021/12/23 06:50:56;;;;;;;77.93;33.80;;;-1.20;99.90;;;;;;5072416;28;20100;-68
2021/12/23 06:53:23;;;;;;;76.57;34.15;;;-1.20;99.90;;;;;;5055272;28;20032;-69
2021/12/23 06:55:50;;;;;;;80.30;36.10;;;-1.20;99.90;;;;;;5072790;28;20031;-70
2021/12/23 06:58:17;;;;;;;83.07;35.80;;;-1.10;99.90;;;;;;5056485;28;20029;-69
2021/12/23 07:00:42;;;;;;;74.28;35.40;;;-1.10;99.90;;;;;;5072810;28;20095;-70
2021/12/23 07:03:08;;;;;;;82.38;35.75;;;-1.10;99.90;;;;;;5084554;28;20052;-69
2021/12/23 07:05:34;;;;;;;83.03;37.65;;;-1.00;99.90;;;;;;5093520;28;20020;-69
2021/12/23 07:08:12;;;;;;;78.88;35.42;;;-1.00;99.90;;;;;;5088650;28;20467;-69
2021/12/23 07:10:38;;;;;;;77.15;34.92;;;-0.80;99.90;;;;;;5085564;28;20034;-69
2021/12/23 07:13:04;;;;;;;78.38;36.17;;;-0.80;99.90;;;;;;5096262;28;20016;-69
2021/12/23 07:15:32;;;;;;;76.13;33.95;;;-0.80;99.90;;;;;;5095871;28;20046;-69
2021/12/23 07:18:00;;;;;;;78.03;36.60;;;-0.70;99.90;;;;;;5087345;28;20020;-69
2021/12/23 07:20:27;;;;;;;78.05;36.78;;;-0.70;99.90;;;;;;5096382;28;20047;-69
2021/12/23 07:22:53;;;;;;;73.20;34.75;;;-0.70;99.90;;;;;;5091547;28;20020;-69
2021/12/23 07:25:19;;;;;;;79.75;36.20;;;-0.70;99.90;;;;;;5096009;28;20020;-69
2021/12/23 07:27:45;;;;;;;73.45;34.67;;;-0.70;99.90;;;;;;5096098;28;20397;-68
2021/12/23 07:30:13;;;;;;;80.93;37.40;;;-0.70;99.90;;;;;;5075567;28;20024;-69
2021/12/23 07:32:39;;;;;;;75.60;35.08;;;-0.80;99.90;;;;;;5075654;28;20484;-69
2021/12/23 07:35:06;;;;;;;77.68;35.20;;;-0.80;99.90;;;;;;5075622;28;20029;-69
2021/12/23 07:37:31;;;;;;;81.50;36.17;;;-0.80;99.90;;;;;;5077939;28;20036;-69
2021/12/23 07:39:57;;;;;;;73.28;34.83;;;-0.80;99.90;;;;;;5075501;28;20024;-69
2021/12/23 07:42:24;;;;;;;74.07;34.58;;;-0.80;99.90;;;;;;5075507;28;20028;-69
2021/12/23 07:44:50;;;;;;;78.15;36.25;;;-0.80;99.90;;;;;;5093330;28;20046;-69
2021/12/23 07:47:17;;;;;;;84.10;36.15;;;-0.80;99.90;;;;;;5095751;28;20067;-69
2021/12/23 07:49:43;;;;;;;77.50;35.88;;;-0.80;99.90;;;;;;5077386;28;20490;-69
2021/12/23 07:52:08;;;;;;;82.20;34.53;;;-0.90;99.90;;;;;;5090217;28;20111;-70
2021/12/23 07:54:35;;;;;;;76.25;35.67;;;-0.80;99.90;;;;;;5075503;28;20107;-70
2021/12/23 07:57:02;;;;;;;76.10;36.15;;;-0.80;99.90;;;;;;5074975;28;20078;-70
2021/12/23 07:59:28;;;;;;;81.18;37.00;;;-0.90;99.90;;;;;;5075078;28;20476;-69
2021/12/23 08:01:57;;;;;;;91.07;36.05;;;-0.90;99.90;;;;;;5075272;28;20024;-69
2021/12/23 08:04:24;;;;;;;75.32;36.00;;;-0.80;99.90;;;;;;5077220;28;20025;-69
2021/12/23 08:06:55;;;;;;;78.35;34.70;;;-0.80;99.90;;;;;;5089015;28;20035;-69
2021/12/23 08:09:25;;;;;;;78.18;35.67;;;-0.90;99.90;;;;;;5092982;28;20023;-70
2021/12/23 08:11:51;;;;;;;78.35;34.33;;;-0.90;99.90;;;;;;5091155;28;20103;-69
2021/12/23 08:14:17;;;;;;;72.47;34.85;;;-0.80;99.90;;;;;;5095103;28;20498;-69
2021/12/23 08:16:43;;;;;;;82.07;35.70;;;-0.80;99.90;;;;;;5094358;28;20059;-69
2021/12/23 08:19:10;;;;;;;74.93;33.42;;;-0.80;99.90;;;;;;5076829;28;20047;-69
2021/12/23 08:21:35;;;;;;;81.50;37.28;;;-0.80;99.90;;;;;;5074968;28;20032;-69
2021/12/23 08:24:01;;;;;;;68.78;34.50;;;-0.80;99.90;;;;;;5086276;28;20097;-69
2021/12/23 08:26:38;;;;;;;79.72;34.88;;;-0.80;99.90;;;;;;5095040;28;20082;-70
2021/12/23 08:29:04;;;;;;;75.40;34.22;;;-0.80;99.90;;;;;;5072485;28;20043;-69
2021/12/23 08:31:29;;;;;;;67.80;32.33;;;-0.80;99.90;;;;;;5074516;28;20472;-69
2021/12/23 08:33:55;;;;;;;68.63;32.50;;;-0.80;99.90;;;;;;5090230;28;20020;-69
2021/12/23 08:36:21;;;;;;;66.25;30.77;;;-0.70;99.90;;;;;;5094873;28;20050;-70
2021/12/23 08:38:46;;;;;;;68.72;32.05;;;-0.70;99.90;;;;;;5091103;28;20036;-69
2021/12/23 08:41:12;;;;;;;71.53;33.72;;;-0.60;99.90;;;;;;5094192;28;20379;-70
2021/12/23 08:43:37;;;;;;;71.78;33.17;;;-0.60;99.90;;;;;;5094531;28;20032;-70
2021/12/23 08:46:03;;;;;;;64.38;31.67;;;-0.60;99.90;;;;;;5093641;28;20032;-69
2021/12/23 08:48:29;;;;;;;82.10;37.35;;;-0.50;99.90;;;;;;5082111;28;20032;-69
2021/12/23 08:50:55;;;;;;;68.80;33.83;;;-0.60;99.90;;;;;;5056209;28;20024;-69
2021/12/23 08:53:21;;;;;;;57.00;29.55;;;-0.50;99.90;;;;;;5080645;28;20146;-69
2021/12/23 08:55:47;;;;;;;68.10;30.17;;;-0.50;99.90;;;;;;5094316;28;20070;-69
2021/12/23 08:58:12;;;;;;;56.33;29.00;;;-0.50;99.90;;;;;;5094202;28;20028;-69
2021/12/23 09:00:39;;;;;;;65.72;32.53;;;-0.50;99.90;;;;;;5094785;28;20028;-69
2021/12/23 09:03:06;;;;;;;65.47;33.50;;;-0.50;99.90;;;;;;5094080;28;20028;-69
2021/12/23 09:05:33;;;;;;;55.10;29.73;;;-0.50;99.90;;;;;;5077061;28;20437;-69
2021/12/23 09:07:59;;;;;;;66.95;30.70;;;-0.40;99.90;;;;;;5089997;28;20368;-69
2021/12/23 09:10:24;;;;;;;62.70;30.63;;;-0.30;99.90;;;;;;5094203;28;20086;-69
2021/12/23 09:12:51;;;;;;;62.42;31.85;;;-0.30;99.90;;;;;;5089331;28;20082;-69
2021/12/23 09:15:17;;;;;;;57.75;30.10;;;-0.20;99.90;;;;;;5058840;28;20059;-69
2021/12/23 09:17:43;;;;;;;56.22;28.45;;;-0.20;99.90;;;;;;5073554;28;20020;-69
2021/12/23 09:20:10;;;;;;;64.90;30.73;;;-0.20;99.90;;;;;;5073803;28;20034;-70
2021/12/23 09:22:36;;;;;;;64.32;31.33;;;-0.20;99.90;;;;;;5073797;28;20422;-69
2021/12/23 09:25:10;;;;;;;62.72;30.70;;;-0.20;99.90;;;;;;5073755;28;20056;-69
2021/12/23 09:27:43;;;;;;;67.85;32.08;;;-0.20;99.90;;;;;;5073428;28;20024;-69
2021/12/23 09:32:52;;;;;;;68.55;32.80;;;-0.20;99.90;;;;;;5073465;28;20070;-69
2021/12/23 09:35:21;;;;;;;67.20;30.83;;;-0.20;99.90;;;;;;5073601;28;20024;-69
2021/12/23 09:37:47;;;;;;;59.70;30.40;;;-0.30;99.90;;;;;;5073228;28;20017;-69
2021/12/23 09:40:13;;;;;;;72.22;31.70;;;-0.20;99.90;;;;;;5073587;28;20035;-70
2021/12/23 09:42:41;;;;;;;68.78;30.75;;;-0.30;99.90;;;;;;5073529;28;20031;-70
2021/12/23 09:45:11;;;;;;;68.38;33.15;;;-0.20;99.90;;;;;;5073274;28;20056;-70
2021/12/23 09:47:37;;;;;;;60.33;30.52;;;-0.30;99.90;;;;;;5073136;28;20025;-70
2021/12/23 09:50:07;;;;;;;60.30;31.05;;;-0.40;99.90;;;;;;5073420;28;20483;-70
2021/12/23 09:52:34;;;;;;;72.13;32.63;;;-0.30;99.90;;;;;;5073147;28;20495;-69
2021/12/23 09:55:04;;;;;;;69.65;34.40;;;-0.20;99.90;;;;;;5073438;28;20029;-69
2021/12/23 09:57:30;;;;;;;70.63;31.88;;;-0.20;99.90;;;;;;5072945;28;20032;-69
2021/12/23 09:59:55;;;;;;;69.30;30.75;;;-0.10;99.90;;;;;;5087562;28;20039;-69
2021/12/23 10:02:22;;;;;;;63.03;31.92;;;-0.20;99.90;;;;;;5090233;28;20054;-68
2021/12/23 10:04:48;;;;;;;69.47;31.65;;;-0.20;99.90;;;;;;5093261;28;20513;-70
2021/12/23 10:07:13;;;;;;;62.47;30.88;;;-0.20;99.90;;;;;;5082920;28;20107;-69
2021/12/23 10:32:15;;;;;;;54.67;28.70;;;-0.10;99.90;;;;;;5093389;28;20031;-69
2021/12/23 10:37:17;;;;;;;57.10;29.55;;;-0.20;99.90;;;;;;5094205;28;20025;-69
2021/12/23 10:39:49;;;;;;;59.45;29.65;;;-0.20;99.90;;;;;;5093233;28;20020;-69
2021/12/23 10:42:19;;;;;;;56.50;29.73;;;-0.20;99.90;;;;;;5096233;28;20070;-69
2021/12/23 10:45:10;;;;;;;56.83;30.15;;;-0.30;99.90;;;;;;5076872;28;20447;-71
2021/12/23 10:47:56;;;;;;;59.80;28.77;;;-0.30;99.90;;;;;;5068821;28;20524;-69
2021/12/23 10:50:45;;;;;;;62.80;27.92;;;-0.20;99.90;;;;;;5078533;28;20028;-70
2021/12/23 10:53:38;;;;;;;71.22;31.02;;;-0.20;99.90;;;;;;5095239;28;20074;-69
2021/12/23 10:59:18;;;;;;;60.63;29.77;;;-0.30;99.90;;;;;;5076461;28;20043;-69
2021/12/23 11:02:20;;;;;;;54.47;29.17;;;-0.30;99.90;;;;;;5077175;28;20376;-69
2021/12/23 11:07:55;;;;;;;53.08;27.98;;;-0.20;99.90;;;;;;5096377;28;20092;-69
2021/12/23 11:36:05;;;;;;;54.35;26.40;;;-0.20;99.90;;;;;;5095994;28;20031;-69
2021/12/23 11:41:33;;;;;;;61.67;28.52;;;-0.30;99.90;;;;;;5096082;28;20024;-69
2021/12/23 11:44:01;;;;;;;54.00;28.60;;;-0.20;99.90;;;;;;5095768;28;20103;-70
2021/12/23 11:46:33;;;;;;;60.40;29.95;;;-0.20;99.90;;;;;;5095661;28;20395;-69
2021/12/23 11:49:02;;;;;;;57.05;28.17;;;-0.20;99.90;;;;;;5077388;28;20024;-70
2021/12/23 11:51:34;;;;;;;53.17;26.80;;;-0.20;99.90;;;;;;5086389;28;20023;-69
2021/12/23 11:54:03;;;;;;;49.13;26.53;;;-0.20;99.90;;;;;;5075415;28;20025;-70
2021/12/23 11:56:31;;;;;;;47.90;26.55;;;-0.20;99.90;;;;;;5064089;28;20115;-70
2021/12/23 11:58:59;;;;;;;60.72;28.42;;;-0.20;99.90;;;;;;5095394;28;20054;-70
2021/12/23 12:01:28;;;;;;;57.40;28.10;;;-0.20;99.90;;;;;;5092211;28;20099;-69
2021/12/23 12:03:57;;;;;;;51.13;27.88;;;-0.20;99.90;;;;;;5075639;28;20426;-70
2021/12/23 12:06:27;;;;;;;58.08;28.80;;;-0.20;99.90;;;;;;5075439;28;20036;-69
2021/12/23 12:08:55;;;;;;;61.28;29.20;;;-0.20;99.90;;;;;;5075088;28;20031;-69
2021/12/23 12:11:23;;;;;;;53.97;27.25;;;-0.10;99.90;;;;;;5080816;28;20498;-69
2021/12/23 12:13:49;;;;;;;63.00;29.17;;;-0.20;99.90;;;;;;5095717;28;20053;-70
2021/12/23 12:16:26;;;;;;;60.97;27.52;;;-0.20;99.90;;;;;;5093278;28;20039;-69
2021/12/23 12:18:52;;;;;;;53.10;28.02;;;-0.20;99.90;;;;;;5075063;28;20460;-69
2021/12/23 12:21:30;;;;;;;55.63;28.20;;;-0.20;99.90;;;;;;5075007;28;20043;-69
2021/12/23 12:24:08;;;;;;;54.35;27.73;;;-0.20;99.90;;;;;;5084635;28;20120;-69
2021/12/23 12:26:37;;;;;;;53.03;27.73;;;-0.20;99.90;;;;;;5082434;28;20379;-69
2021/12/23 12:29:05;;;;;;;52.85;27.98;;;-0.10;99.90;;;;;;5094685;28;20027;-70
2021/12/23 12:31:39;;;;;;;61.33;28.92;;;-0.20;99.90;;;;;;5091303;28;20491;-69
2021/12/23 12:34:07;;;;;;;52.85;27.20;;;-0.20;99.90;;;;;;5074802;28;20111;-69
2021/12/23 12:36:50;;;;;;;57.60;29.00;;;-0.20;99.90;;;;;;5074427;28;20119;-70
2021/12/23 12:39:20;;;;;;;58.60;29.30;;;-0.20;99.90;;;;;;5095065;28;20119;-70
2021/12/23 12:41:47;;;;;;;62.92;29.60;;;-0.20;99.90;;;;;;5085430;28;20362;-70
2021/12/23 12:44:40;;;;;;;57.60;27.45;;;-0.30;99.90;;;;;;5074324;28;20020;-69
2021/12/23 12:49:36;;;;;;;56.97;27.35;;;-0.30;99.90;;;;;;5094708;28;20115;-69
2021/12/23 12:52:30;;;;;;;58.30;29.90;;;-0.30;99.90;;;;;;5094694;28;20031;-69
2021/12/23 12:54:59;;;;;;;49.45;27.77;;;-0.30;99.90;;;;;;5094682;28;20016;-70
2021/12/23 12:57:34;;;;;;;57.10;28.02;;;-0.30;99.90;;;;;;5089271;28;20025;-69
2021/12/23 13:00:16;;;;;;;53.08;26.73;;;-0.30;99.90;;;;;;5074341;28;20093;-70
2021/12/23 13:03:14;;;;;;;53.72;28.73;;;-0.30;99.90;;;;;;5073862;28;20024;-70
2021/12/23 13:05:43;;;;;;;53.85;29.33;;;-0.30;99.90;;;;;;5065238;28;20043;-70
2021/12/23 13:08:29;;;;;;;55.63;28.98;;;-0.30;99.90;;;;;;5073964;28;20029;-69
2021/12/23 13:11:12;;;;;;;50.33;26.90;;;-0.30;99.90;;;;;;5073955;28;20016;-70
2021/12/23 13:13:45;;;;;;;59.15;29.65;;;-0.30;99.90;;;;;;5074007;28;20052;-70
2021/12/23 13:16:25;;;;;;;58.38;29.50;;;-0.30;99.90;;;;;;5073718;28;20506;-69
2021/12/23 13:19:18;;;;;;;51.95;28.80;;;-0.30;99.90;;;;;;5073624;28;20501;-69
2021/12/23 13:21:46;;;;;;;59.25;30.33;;;-0.30;99.90;;;;;;5073580;28;20059;-69
2021/12/23 13:24:17;;;;;;;58.70;31.45;;;-0.30;99.90;;;;;;5073533;28;20373;-70
2021/12/23 13:26:43;;;;;;;59.28;30.27;;;-0.40;99.90;;;;;;5073487;28;20017;-70
2021/12/23 13:29:10;;;;;;;75.82;30.83;;;-0.30;99.90;;;;;;5073489;28;20032;-69
2021/12/23 13:31:38;;;;;;;64.30;29.83;;;-0.40;99.90;;;;;;5073543;28;20369;-69
2021/12/23 13:34:08;;;;;;;59.72;31.40;;;-0.30;99.90;;;;;;5075489;28;20021;-69
2021/12/23 13:36:46;;;;;;;66.75;32.88;;;-0.30;99.90;;;;;;5073669;28;20384;-70
2021/12/23 13:39:19;;;;;;;61.88;31.05;;;-0.40;99.90;;;;;;5068829;28;20027;-70